sensor_id;sensor_type;location;lat;lon;timestamp;pressure;altitude;pressure_sealevel;temperature;humidity
69574;BME280;62840;52.366;5.980;2023-02-03T00:01:18;102234.47;;;8.74;77.41
69574;BME280;62840;52.366;5.980;2023-02-03T00:03:44;102238.94;;;8.74;77.42
69574;BME280;62840;52.366;5.980;2023-02-03T00:06:09;102233.59;;;8.74;77.38
69574;BME280;62840;52.366;5.980;2023-02-03T00:08:36;102234.47;;;8.74;77.54
69574;BME280;62840;52.366;5.980;2023-02-03T00:11:05;102248.53;;;8.76;77.31
69574;BME280;62840;52.366;5.980;2023-02-03T00:13:33;102235.16;;;8.78;77.34
69574;BME280;62840;52.366;5.980;2023-02-03T00:15:59;102233.28;;;8.80;77.41
69574;BME280;62840;52.366;5.980;2023-02-03T00:18:24;102242.06;;;8.82;77.30
69574;BME280;62840;52.366;5.980;2023-02-03T00:20:50;102246.50;;;8.82;77.40
69574;BME280;62840;52.366;5.980;2023-02-03T00:23:16;102252.69;;;8.82;77.28
69574;BME280;62840;52.366;5.980;2023-02-03T00:25:42;102264.19;;;8.83;77.36
69574;BME280;62840;52.366;5.980;2023-02-03T00:28:10;102270.34;;;8.83;77.29
69574;BME280;62840;52.366;5.980;2023-02-03T00:30:36;102273.81;;;8.85;77.35
69574;BME280;62840;52.366;5.980;2023-02-03T00:33:02;102279.97;;;8.86;77.32
69574;BME280;62840;52.366;5.980;2023-02-03T00:35:28;102259.56;;;8.86;77.32
69574;BME280;62840;52.366;5.980;2023-02-03T00:37:54;102264.91;;;8.86;77.20
69574;BME280;62840;52.366;5.980;2023-02-03T00:40:23;102265.66;;;8.88;77.31
69574;BME280;62840;52.366;5.980;2023-02-03T00:42:51;102257.66;;;8.88;77.15
69574;BME280;62840;52.366;5.980;2023-02-03T00:45:19;102262.13;;;8.88;77.03
69574;BME280;62840;52.366;5.980;2023-02-03T00:47:45;102262.25;;;8.86;77.04
69574;BME280;62840;52.366;5.980;2023-02-03T00:50:11;102257.84;;;8.85;77.13
69574;BME280;62840;52.366;5.980;2023-02-03T00:52:36;102268.31;;;8.88;77.05
69574;BME280;62840;52.366;5.980;2023-02-03T00:55:03;102257.66;;;8.88;76.98
69574;BME280;62840;52.366;5.980;2023-02-03T00:57:30;102256.81;;;8.88;77.08
69574;BME280;62840;52.366;5.980;2023-02-03T00:59:55;102259.41;;;8.89;77.16
69574;BME280;62840;52.366;5.980;2023-02-03T01:02:24;102244.53;;;8.85;77.06
69574;BME280;62840;52.366;5.980;2023-02-03T01:04:50;102234.84;;;8.84;77.13
69574;BME280;62840;52.366;5.980;2023-02-03T01:07:15;102231.25;;;8.85;76.94
69574;BME280;62840;52.366;5.980;2023-02-03T01:09:41;102233.81;;;8.87;77.02
69574;BME280;62840;52.366;5.980;2023-02-03T01:12:07;102238.28;;;8.86;76.94
69574;BME280;62840;52.366;5.980;2023-02-03T01:14:33;102254.25;;;8.86;76.94
69574;BME280;62840;52.366;5.980;2023-02-03T01:16:59;102254.25;;;8.86;76.92
69574;BME280;62840;52.366;5.980;2023-02-03T01:19:28;102255.19;;;8.85;77.00
69574;BME280;62840;52.366;5.980;2023-02-03T01:21:53;102240.19;;;8.84;76.83
69574;BME280;62840;52.366;5.980;2023-02-03T01:24:19;102233.03;;;8.85;76.85
69574;BME280;62840;52.366;5.980;2023-02-03T01:26:45;102229.53;;;8.84;76.92
69574;BME280;62840;52.366;5.980;2023-02-03T01:29:10;102218.91;;;8.84;76.68
69574;BME280;62840;52.366;5.980;2023-02-03T01:31:38;102210.91;;;8.84;76.79
69574;BME280;62840;52.366;5.980;2023-02-03T01:34:06;102214.41;;;8.85;76.68
69574;BME280;62840;52.366;5.980;2023-02-03T01:36:35;102213.56;;;8.84;76.63
69574;BME280;62840;52.366;5.980;2023-02-03T01:39:02;102220.59;;;8.85;76.72
69574;BME280;62840;52.366;5.980;2023-02-03T01:41:30;102219.56;;;8.88;76.59
69574;BME280;62840;52.366;5.980;2023-02-03T01:43:59;102211.50;;;8.89;76.60
69574;BME280;62840;52.366;5.980;2023-02-03T01:46:29;102202.75;;;8.87;76.62
69574;BME280;62840;52.366;5.980;2023-02-03T01:49:05;102194.84;;;8.86;76.63
69574;BME280;62840;52.366;5.980;2023-02-03T01:51:39;102187.88;;;8.83;76.56
69574;BME280;62840;52.366;5.980;2023-02-03T01:54:08;102173.03;;;8.79;76.35
69574;BME280;62840;52.366;5.980;2023-02-03T01:56:41;102181.91;;;8.79;76.36
69574;BME280;62840;52.366;5.980;2023-02-03T01:59:10;102173.03;;;8.79;76.40
69574;BME280;62840;52.366;5.980;2023-02-03T02:01:39;102193.38;;;8.80;76.49
69574;BME280;62840;52.366;5.980;2023-02-03T02:04:05;102199.63;;;8.79;76.23
69574;BME280;62840;52.366;5.980;2023-02-03T02:06:32;102217.34;;;8.80;76.47
69574;BME280;62840;52.366;5.980;2023-02-03T02:09:01;102203.06;;;8.81;76.26
69574;BME280;62840;52.366;5.980;2023-02-03T02:11:28;102198.59;;;8.82;76.17
69574;BME280;62840;52.366;5.980;2023-02-03T02:13:57;102192.44;;;8.81;76.19
69574;BME280;62840;52.366;5.980;2023-02-03T02:16:35;102181.78;;;8.81;76.03
69574;BME280;62840;52.366;5.980;2023-02-03T02:19:32;102159.59;;;8.82;76.44
69574;BME280;62840;52.366;5.980;2023-02-03T02:22:19;102164.13;;;8.80;76.25
69574;BME280;62840;52.366;5.980;2023-02-03T02:25:15;102162.41;;;8.79;76.06
69574;BME280;62840;52.366;5.980;2023-02-03T02:28:24;102175.69;;;8.79;76.08
69574;BME280;62840;52.366;5.980;2023-02-03T02:31:45;102185.41;;;8.80;75.87
69574;BME280;62840;52.366;5.980;2023-02-03T02:34:21;102180.09;;;8.80;75.99
69574;BME280;62840;52.366;5.980;2023-02-03T02:37:01;102189.78;;;8.81;76.06
69574;BME280;62840;52.366;5.980;2023-02-03T02:39:41;102175.63;;;8.80;76.05
69574;BME280;62840;52.366;5.980;2023-02-03T02:42:23;102165.84;;;8.81;75.86
69574;BME280;62840;52.366;5.980;2023-02-03T02:45:01;102174.59;;;8.83;75.91
69574;BME280;62840;52.366;5.980;2023-02-03T02:47:36;102164.91;;;8.82;75.73
69574;BME280;62840;52.366;5.980;2023-02-03T02:50:06;102160.38;;;8.84;75.82
69574;BME280;62840;52.366;5.980;2023-02-03T02:52:40;102158.50;;;8.86;75.79
69574;BME280;62840;52.366;5.980;2023-02-03T02:55:13;102165.50;;;8.87;75.54
69574;BME280;62840;52.366;5.980;2023-02-03T02:57:46;102190.22;;;8.89;75.69
69574;BME280;62840;52.366;5.980;2023-02-03T03:00:14;102199.13;;;8.88;75.77
69574;BME280;62840;52.366;5.980;2023-02-03T03:02:42;102184.91;;;8.89;75.63
69574;BME280;62840;52.366;5.980;2023-02-03T03:05:09;102175.97;;;8.90;75.73
69574;BME280;62840;52.366;5.980;2023-02-03T03:07:41;102170.66;;;8.90;75.60
69574;BME280;62840;52.366;5.980;2023-02-03T03:10:15;102164.41;;;8.91;75.67
69574;BME280;62840;52.366;5.980;2023-02-03T03:12:48;102167.22;;;8.88;75.49
69574;BME280;62840;52.366;5.980;2023-02-03T03:15:21;102145.94;;;8.88;75.58
69574;BME280;62840;52.366;5.980;2023-02-03T03:17:56;102165.34;;;8.90;75.52
69574;BME280;62840;52.366;5.980;2023-02-03T03:20:28;102158.31;;;8.89;75.44
69574;BME280;62840;52.366;5.980;2023-02-03T03:22:59;102158.31;;;8.89;75.50
69574;BME280;62840;52.366;5.980;2023-02-03T03:25:34;102167.06;;;8.91;75.47
69574;BME280;62840;52.366;5.980;2023-02-03T03:28:11;102167.13;;;8.90;75.47
69574;BME280;62840;52.366;5.980;2023-02-03T03:30:41;102149.38;;;8.90;75.56
69574;BME280;62840;52.366;5.980;2023-02-03T03:33:10;102170.66;;;8.90;75.43
69574;BME280;62840;52.366;5.980;2023-02-03T03:35:40;102151.25;;;8.88;75.39
69574;BME280;62840;52.366;5.980;2023-02-03T03:38:15;102153.16;;;8.86;75.25
69574;BME280;62840;52.366;5.980;2023-02-03T03:40:50;102161.03;;;8.88;75.32
69574;BME280;62840;52.366;5.980;2023-02-03T03:43:27;102154.63;;;8.92;75.09
69574;BME280;62840;52.366;5.980;2023-02-03T03:46:00;102146.56;;;8.93;75.04
69574;BME280;62840;52.366;5.980;2023-02-03T03:48:38;102139.25;;;8.97;74.95
69574;BME280;62840;52.366;5.980;2023-02-03T03:51:10;102152.47;;;8.98;75.03
69574;BME280;62840;52.366;5.980;2023-02-03T03:53:41;102141.84;;;8.98;74.97
69574;BME280;62840;52.366;5.980;2023-02-03T03:56:15;102140.97;;;8.98;74.94
69574;BME280;62840;52.366;5.980;2023-02-03T03:58:48;102144.56;;;8.97;74.97
69574;BME280;62840;52.366;5.980;2023-02-03T04:01:18;102152.47;;;8.98;75.04
69574;BME280;62840;52.366;5.980;2023-02-03T04:03:54;102144.50;;;8.98;74.75
69574;BME280;62840;52.366;5.980;2023-02-03T04:06:24;102155.13;;;8.98;74.77
69574;BME280;62840;52.366;5.980;2023-02-03T04:08:50;102158.56;;;9.00;74.99
69574;BME280;62840;52.366;5.980;2023-02-03T04:11:16;102167.41;;;9.01;74.84
69574;BME280;62840;52.366;5.980;2023-02-03T04:13:41;102161.06;;;9.04;74.81
69574;BME280;62840;52.366;5.980;2023-02-03T04:16:07;102169.03;;;9.04;74.77
69574;BME280;62840;52.366;5.980;2023-02-03T04:18:33;102162.88;;;9.03;74.78
69574;BME280;62840;52.366;5.980;2023-02-03T04:21:02;102161.06;;;9.04;74.95
69574;BME280;62840;52.366;5.980;2023-02-03T04:23:28;102157.47;;;9.05;74.74
69574;BME280;62840;52.366;5.980;2023-02-03T04:25:54;102148.53;;;9.06;74.55
69574;BME280;62840;52.366;5.980;2023-02-03T04:28:19;102142.28;;;9.07;74.65
69574;BME280;62840;52.366;5.980;2023-02-03T04:30:45;102142.09;;;9.10;74.29
69574;BME280;62840;52.366;5.980;2023-02-03T04:33:11;102146.47;;;9.11;74.54
69574;BME280;62840;52.366;5.980;2023-02-03T04:35:36;102143.91;;;9.09;74.46
69574;BME280;62840;52.366;5.980;2023-02-03T04:38:05;102134.13;;;9.10;74.42
69574;BME280;62840;52.366;5.980;2023-02-03T04:40:30;102139.44;;;9.10;74.50
69574;BME280;62840;52.366;5.980;2023-02-03T04:42:56;102143.91;;;9.09;74.45
69574;BME280;62840;52.366;5.980;2023-02-03T04:45:22;102134.13;;;9.10;74.47
69574;BME280;62840;52.366;5.980;2023-02-03T04:47:50;102116.25;;;9.12;74.32
69574;BME280;62840;52.366;5.980;2023-02-03T04:50:17;102134.88;;;9.12;74.46
69574;BME280;62840;52.366;5.980;2023-02-03T04:52:42;102133.94;;;9.13;74.46
69574;BME280;62840;52.366;5.980;2023-02-03T04:55:11;102129.38;;;9.15;74.58
69574;BME280;62840;52.366;5.980;2023-02-03T04:57:36;102139.09;;;9.16;74.60
69574;BME280;62840;52.366;5.980;2023-02-03T05:00:03;102136.44;;;9.16;74.43
69574;BME280;62840;52.366;5.980;2023-02-03T05:02:29;102146.13;;;9.17;74.53
69574;BME280;62840;52.366;5.980;2023-02-03T05:04:55;102147.09;;;9.16;74.42
69574;BME280;62840;52.366;5.980;2023-02-03T05:07:21;102138.22;;;9.15;74.40
69574;BME280;62840;52.366;5.980;2023-02-03T05:09:47;102136.44;;;9.16;74.47
69574;BME280;62840;52.366;5.980;2023-02-03T05:12:15;102139.97;;;9.16;74.44
69574;BME280;62840;52.366;5.980;2023-02-03T05:14:41;102145.34;;;9.15;74.45
69574;BME280;62840;52.366;5.980;2023-02-03T05:17:06;102142.69;;;9.15;74.40
69574;BME280;62840;52.366;5.980;2023-02-03T05:19:32;102153.34;;;9.15;74.45
69574;BME280;62840;52.366;5.980;2023-02-03T05:21:58;102148.00;;;9.15;74.59
69574;BME280;62840;52.366;5.980;2023-02-03T05:24:23;102152.50;;;9.14;74.41
69574;BME280;62840;52.366;5.980;2023-02-03T05:26:49;102143.53;;;9.15;74.57
69574;BME280;62840;52.366;5.980;2023-02-03T05:29:17;102142.69;;;9.15;74.38
69574;BME280;62840;52.366;5.980;2023-02-03T05:31:43;102135.66;;;9.14;74.39
69574;BME280;62840;52.366;5.980;2023-02-03T05:34:09;102141.00;;;9.14;74.23
69574;BME280;62840;52.366;5.980;2023-02-03T05:36:35;102133.00;;;9.14;74.31
69574;BME280;62840;52.366;5.980;2023-02-03T05:39:00;102143.53;;;9.15;74.41
69574;BME280;62840;52.366;5.980;2023-02-03T05:41:26;102138.16;;;9.17;74.41
69574;BME280;62840;52.366;5.980;2023-02-03T05:43:52;102127.50;;;9.17;74.31
69574;BME280;62840;52.366;5.980;2023-02-03T05:46:22;102139.78;;;9.19;74.15
69574;BME280;62840;52.366;5.980;2023-02-03T05:48:48;102140.66;;;9.20;74.02
69574;BME280;62840;52.366;5.980;2023-02-03T05:51:14;102149.56;;;9.19;74.24
69574;BME280;62840;52.366;5.980;2023-02-03T05:53:40;102149.56;;;9.19;74.02
69574;BME280;62840;52.366;5.980;2023-02-03T05:56:06;102137.03;;;9.21;74.21
69574;BME280;62840;52.366;5.980;2023-02-03T05:58:31;102133.41;;;9.22;74.19
69574;BME280;62840;52.366;5.980;2023-02-03T06:00:57;102128.97;;;9.23;74.03
69574;BME280;62840;52.366;5.980;2023-02-03T06:03:25;102140.47;;;9.23;73.96
69574;BME280;62840;52.366;5.980;2023-02-03T06:05:51;102136.00;;;9.24;73.82
69574;BME280;62840;52.366;5.980;2023-02-03T06:08:17;102124.50;;;9.23;73.85
69574;BME280;62840;52.366;5.980;2023-02-03T06:10:43;102130.69;;;9.24;73.95
69574;BME280;62840;52.366;5.980;2023-02-03T06:13:09;102136.84;;;9.24;74.01
69574;BME280;62840;52.366;5.980;2023-02-03T06:15:36;102129.81;;;9.23;74.03
69574;BME280;62840;52.366;5.980;2023-02-03T06:18:02;102135.16;;;9.23;74.05
69574;BME280;62840;52.366;5.980;2023-02-03T06:20:30;102140.47;;;9.23;74.01
69574;BME280;62840;52.366;5.980;2023-02-03T06:22:56;102149.22;;;9.25;74.00
69574;BME280;62840;52.366;5.980;2023-02-03T06:25:22;102143.06;;;9.25;73.98
69574;BME280;62840;52.366;5.980;2023-02-03T06:27:48;102159.03;;;9.25;74.13
69574;BME280;62840;52.366;5.980;2023-02-03T06:30:14;102159.88;;;9.25;74.00
69574;BME280;62840;52.366;5.980;2023-02-03T06:32:40;102161.59;;;9.26;74.12
69574;BME280;62840;52.366;5.980;2023-02-03T06:35:06;102166.91;;;9.26;73.90
69574;BME280;62840;52.366;5.980;2023-02-03T06:37:35;102163.31;;;9.27;74.14
69574;BME280;62840;52.366;5.980;2023-02-03T06:40:01;102171.31;;;9.27;74.05
69574;BME280;62840;52.366;5.980;2023-02-03T06:42:27;102165.03;;;9.28;73.98
69574;BME280;62840;52.366;5.980;2023-02-03T06:44:52;102159.69;;;9.28;73.90
69574;BME280;62840;52.366;5.980;2023-02-03T06:47:18;102164.16;;;9.28;73.85
69574;BME280;62840;52.366;5.980;2023-02-03T06:49:44;102168.56;;;9.29;74.00
69574;BME280;62840;52.366;5.980;2023-02-03T06:52:10;102167.63;;;9.30;74.03
69574;BME280;62840;52.366;5.980;2023-02-03T06:54:38;102174.66;;;9.31;73.95
69574;BME280;62840;52.366;5.980;2023-02-03T06:57:04;102172.88;;;9.31;74.01
69574;BME280;62840;52.366;5.980;2023-02-03T06:59:29;102168.50;;;9.30;73.86
69574;BME280;62840;52.366;5.980;2023-02-03T07:01:55;102166.69;;;9.31;73.95
69574;BME280;62840;52.366;5.980;2023-02-03T07:04:21;102166.69;;;9.31;73.90
69574;BME280;62840;52.366;5.980;2023-02-03T07:06:47;102165.91;;;9.29;73.95
69574;BME280;62840;52.366;5.980;2023-02-03T07:09:13;102161.47;;;9.29;74.01
69574;BME280;62840;52.366;5.980;2023-02-03T07:11:42;102163.16;;;9.30;73.90
69574;BME280;62840;52.366;5.980;2023-02-03T07:14:07;102161.47;;;9.29;73.82
69574;BME280;62840;52.366;5.980;2023-02-03T07:16:33;102155.25;;;9.29;73.85
69574;BME280;62840;52.366;5.980;2023-02-03T07:18:59;102158.00;;;9.27;73.87
69574;BME280;62840;52.366;5.980;2023-02-03T07:21:25;102148.28;;;9.26;73.92
69574;BME280;62840;52.366;5.980;2023-02-03T07:23:50;102159.88;;;9.25;73.88
69574;BME280;62840;52.366;5.980;2023-02-03T07:26:17;102166.91;;;9.26;74.01
69574;BME280;62840;52.366;5.980;2023-02-03T07:28:45;102158.91;;;9.26;73.99
69574;BME280;62840;52.366;5.980;2023-02-03T07:31:11;102163.47;;;9.24;73.93
69574;BME280;62840;52.366;5.980;2023-02-03T07:33:37;102181.31;;;9.22;73.89
69574;BME280;62840;52.366;5.980;2023-02-03T07:36:04;102188.56;;;9.20;73.91
69574;BME280;62840;52.366;5.980;2023-02-03T07:38:31;102195.59;;;9.21;73.96
69574;BME280;62840;52.366;5.980;2023-02-03T07:40:57;102202.63;;;9.22;74.02
69574;BME280;62840;52.366;5.980;2023-02-03T07:43:23;102195.53;;;9.23;73.85
69574;BME280;62840;52.366;5.980;2023-02-03T07:45:51;102200.91;;;9.21;73.96
69574;BME280;62840;52.366;5.980;2023-02-03T07:48:17;102203.50;;;9.23;73.90
69574;BME280;62840;52.366;5.980;2023-02-03T07:50:43;102210.72;;;9.20;73.89
69574;BME280;62840;52.366;5.980;2023-02-03T07:53:08;102216.88;;;9.21;73.92
69574;BME280;62840;52.366;5.980;2023-02-03T07:55:36;102202.63;;;9.22;73.82
69574;BME280;62840;52.366;5.980;2023-02-03T07:58:02;102209.69;;;9.23;73.97
69574;BME280;62840;52.366;5.980;2023-02-03T08:00:28;102213.13;;;9.25;74.00
69574;BME280;62840;52.366;5.980;2023-02-03T08:02:57;102216.56;;;9.27;73.98
69574;BME280;62840;52.366;5.980;2023-02-03T08:05:22;102239.56;;;9.28;74.07
69574;BME280;62840;52.366;5.980;2023-02-03T08:07:48;102218.16;;;9.31;73.85
69574;BME280;62840;52.366;5.980;2023-02-03T08:10:15;102236.69;;;9.33;73.90
69574;BME280;62840;52.366;5.980;2023-02-03T08:12:43;102236.69;;;9.33;73.66
69574;BME280;62840;52.366;5.980;2023-02-03T08:15:10;102228.63;;;9.34;73.86
69574;BME280;62840;52.366;5.980;2023-02-03T08:17:36;102239.00;;;9.39;73.86
69574;BME280;62840;52.366;5.980;2023-02-03T08:20:05;102240.72;;;9.40;73.88
69574;BME280;62840;52.366;5.980;2023-02-03T08:22:31;102222.97;;;9.40;73.66
69574;BME280;62840;52.366;5.980;2023-02-03T08:24:57;102231.72;;;9.43;73.87
69574;BME280;62840;52.366;5.980;2023-02-03T08:27:23;102235.13;;;9.45;73.97
69574;BME280;62840;52.366;5.980;2023-02-03T08:29:49;102226.22;;;9.46;74.03
69574;BME280;62840;52.366;5.980;2023-02-03T08:32:16;102222.59;;;9.47;74.02
69574;BME280;62840;52.366;5.980;2023-02-03T08:34:44;102229.66;;;9.48;73.79
69574;BME280;62840;52.366;5.980;2023-02-03T08:37:14;102227.84;;;9.48;73.97
69574;BME280;62840;52.366;5.980;2023-02-03T08:39:43;102233.09;;;9.50;73.85
69574;BME280;62840;52.366;5.980;2023-02-03T08:42:09;102251.63;;;9.51;73.79
69574;BME280;62840;52.366;5.980;2023-02-03T08:44:35;102242.72;;;9.52;73.99
69574;BME280;62840;52.366;5.980;2023-02-03T08:47:01;102244.41;;;9.53;73.89
69574;BME280;62840;52.366;5.980;2023-02-03T08:49:28;102254.03;;;9.56;73.87
69574;BME280;62840;52.366;5.980;2023-02-03T08:51:55;102243.38;;;9.56;73.92
69574;BME280;62840;52.366;5.980;2023-02-03T08:54:25;102254.81;;;9.58;73.92
69574;BME280;62840;52.366;5.980;2023-02-03T08:56:51;102266.25;;;9.60;73.85
69574;BME280;62840;52.366;5.980;2023-02-03T08:59:16;102261.69;;;9.62;73.94
69574;BME280;62840;52.366;5.980;2023-02-03T09:01:43;102262.47;;;9.64;73.84
69574;BME280;62840;52.366;5.980;2023-02-03T09:04:09;102265.13;;;9.64;73.73
69574;BME280;62840;52.366;5.980;2023-02-03T09:06:35;102265.91;;;9.66;73.79
69574;BME280;62840;52.366;5.980;2023-02-03T09:09:01;102261.28;;;9.70;73.79
69574;BME280;62840;52.366;5.980;2023-02-03T09:11:30;102253.19;;;9.71;73.79
69574;BME280;62840;52.366;5.980;2023-02-03T09:13:55;102256.63;;;9.73;73.76
69574;BME280;62840;52.366;5.980;2023-02-03T09:16:21;102272.59;;;9.73;73.63
69574;BME280;62840;52.366;5.980;2023-02-03T09:18:47;102274.34;;;9.74;73.82
69574;BME280;62840;52.366;5.980;2023-02-03T09:21:14;102277.78;;;9.76;73.69
69574;BME280;62840;52.366;5.980;2023-02-03T09:23:40;102273.31;;;9.77;73.64
69574;BME280;62840;52.366;5.980;2023-02-03T09:26:07;102270.53;;;9.78;73.60
69574;BME280;62840;52.366;5.980;2023-02-03T09:28:37;102260.66;;;9.80;73.80
69574;BME280;62840;52.366;5.980;2023-02-03T09:31:05;102267.78;;;9.80;73.79
69574;BME280;62840;52.366;5.980;2023-02-03T09:33:32;102278.44;;;9.80;73.70
69574;BME280;62840;52.366;5.980;2023-02-03T09:35:59;102286.38;;;9.81;73.76
69574;BME280;62840;52.366;5.980;2023-02-03T09:38:25;102283.63;;;9.83;73.73
69574;BME280;62840;52.366;5.980;2023-02-03T09:40:54;102286.19;;;9.84;73.57
69574;BME280;62840;52.366;5.980;2023-02-03T09:43:30;102302.03;;;9.88;73.78
69574;BME280;62840;52.366;5.980;2023-02-03T09:46:05;102298.41;;;9.89;73.75
69574;BME280;62840;52.366;5.980;2023-02-03T09:48:38;102291.19;;;9.91;73.74
69574;BME280;62840;52.366;5.980;2023-02-03T09:51:17;102292.88;;;9.92;73.69
69574;BME280;62840;52.366;5.980;2023-02-03T09:53:49;102308.72;;;9.95;73.61
69574;BME280;62840;52.366;5.980;2023-02-03T09:56:27;102301.50;;;9.97;73.56
69574;BME280;62840;52.366;5.980;2023-02-03T09:58:57;102305.00;;;9.97;73.57
69574;BME280;62840;52.366;5.980;2023-02-03T10:01:32;102295.97;;;10.00;73.55
69574;BME280;62840;52.366;5.980;2023-02-03T10:04:14;102295.13;;;9.99;73.49
69574;BME280;62840;52.366;5.980;2023-02-03T10:06:49;102291.50;;;10.00;73.56
69574;BME280;62840;52.366;5.980;2023-02-03T10:09:32;102287.91;;;10.01;73.50
69574;BME280;62840;52.366;5.980;2023-02-03T10:15:37;102317.31;;;10.00;73.56
69574;BME280;62840;52.366;5.980;2023-02-03T10:18:23;102315.69;;;9.97;73.49
69574;BME280;62840;52.366;5.980;2023-02-03T10:20:55;102317.50;;;9.97;73.50
69574;BME280;62840;52.366;5.980;2023-02-03T10:23:29;102324.53;;;9.98;73.58
69574;BME280;62840;52.366;5.980;2023-02-03T10:26:00;102333.47;;;9.97;73.37
69574;BME280;62840;52.366;5.980;2023-02-03T10:28:30;102328.16;;;9.97;73.46
69574;BME280;62840;52.366;5.980;2023-02-03T10:31:13;102353.91;;;9.96;73.56
69574;BME280;62840;52.366;5.980;2023-02-03T10:33:46;102353.06;;;9.96;73.53
69574;BME280;62840;52.366;5.980;2023-02-03T10:36:19;102338.03;;;9.95;73.53
69574;BME280;62840;52.366;5.980;2023-02-03T10:38:55;102342.41;;;9.96;73.66
69574;BME280;62840;52.366;5.980;2023-02-03T10:41:29;102346.97;;;9.94;73.56
69574;BME280;62840;52.366;5.980;2023-02-03T10:43:57;102341.72;;;9.92;73.65
69574;BME280;62840;52.366;5.980;2023-02-03T10:46:28;102339.16;;;9.91;73.82
69574;BME280;62840;52.366;5.980;2023-02-03T10:48:58;102354.34;;;9.89;74.00
69574;BME280;62840;52.366;5.980;2023-02-03T10:51:26;102377.63;;;9.85;74.07
69574;BME280;62840;52.366;5.980;2023-02-03T10:53:52;102383.06;;;9.83;74.33
69574;BME280;62840;52.366;5.980;2023-02-03T10:56:20;102385.88;;;9.80;74.55
69574;BME280;62840;52.366;5.980;2023-02-03T10:58:52;102384.19;;;9.79;74.60
69574;BME280;62840;52.366;5.980;2023-02-03T11:01:20;102385.03;;;9.80;74.66
69574;BME280;62840;52.366;5.980;2023-02-03T11:03:59;102387.78;;;9.78;74.58
69574;BME280;62840;52.366;5.980;2023-02-03T11:06:26;102387.88;;;9.77;74.58
69574;BME280;62840;52.366;5.980;2023-02-03T11:08:53;102380.72;;;9.77;74.66
69574;BME280;62840;52.366;5.980;2023-02-03T11:11:21;102398.44;;;9.78;74.79
69574;BME280;62840;52.366;5.980;2023-02-03T11:13:51;102405.50;;;9.79;74.76
69574;BME280;62840;52.366;5.980;2023-02-03T11:16:35;102391.22;;;9.80;74.67
69574;BME280;62840;52.366;5.980;2023-02-03T11:19:04;102393.88;;;9.80;74.79
69574;BME280;62840;52.366;5.980;2023-02-03T11:21:40;102382.44;;;9.78;74.80
69574;BME280;62840;52.366;5.980;2023-02-03T11:24:12;102386.00;;;9.79;74.78
69574;BME280;62840;52.366;5.980;2023-02-03T11:26:46;102396.66;;;9.79;74.84
69574;BME280;62840;52.366;5.980;2023-02-03T11:29:17;102400.16;;;9.79;74.72
69574;BME280;62840;52.366;5.980;2023-02-03T11:31:47;102409.09;;;9.78;74.67
69574;BME280;62840;52.366;5.980;2023-02-03T11:34:21;102403.75;;;9.78;74.77
69574;BME280;62840;52.366;5.980;2023-02-03T11:36:51;102402.03;;;9.77;74.72
69574;BME280;62840;52.366;5.980;2023-02-03T11:39:25;102407.56;;;9.74;75.01
69574;BME280;62840;52.366;5.980;2023-02-03T11:41:52;102404.88;;;9.74;74.87
69574;BME280;62840;52.366;5.980;2023-02-03T11:44:21;102404.72;;;9.77;75.03
69574;BME280;62840;52.366;5.980;2023-02-03T11:46:52;102402.84;;;9.79;75.09
69574;BME280;62840;52.366;5.980;2023-02-03T11:49:59;102414.28;;;9.81;74.88
69574;BME280;62840;52.366;5.980;2023-02-03T11:52:59;102405.31;;;9.82;74.66
69574;BME280;62840;52.366;5.980;2023-02-03T11:55:46;102404.28;;;9.85;74.63
69574;BME280;62840;52.366;5.980;2023-02-03T11:58:39;102414.09;;;9.84;74.61
69574;BME280;62840;52.366;5.980;2023-02-03T12:01:26;102413.16;;;9.86;74.45
69574;BME280;62840;52.366;5.980;2023-02-03T12:04:23;102421.16;;;9.86;74.56
69574;BME280;62840;52.366;5.980;2023-02-03T12:07:26;102431.81;;;9.86;74.49
69574;BME280;62840;52.366;5.980;2023-02-03T12:10:09;102431.81;;;9.86;74.34
69574;BME280;62840;52.366;5.980;2023-02-03T12:12:51;102421.16;;;9.86;74.48
69574;BME280;62840;52.366;5.980;2023-02-03T12:16:02;102430.69;;;9.90;74.39
69574;BME280;62840;52.366;5.980;2023-02-03T12:18:54;102431.63;;;9.89;74.47
69574;BME280;62840;52.366;5.980;2023-02-03T12:21:41;102443.00;;;9.92;74.25
69574;BME280;62840;52.366;5.980;2023-02-03T12:24:16;102443.84;;;9.93;74.41
69574;BME280;62840;52.366;5.980;2023-02-03T12:27:00;102452.78;;;9.92;74.38
69574;BME280;62840;52.366;5.980;2023-02-03T12:29:46;102452.63;;;9.95;74.16
69574;BME280;62840;52.366;5.980;2023-02-03T12:32:22;102454.34;;;9.96;74.06
69574;BME280;62840;52.366;5.980;2023-02-03T12:34:58;102452.47;;;9.98;74.18
69574;BME280;62840;52.366;5.980;2023-02-03T12:37:35;102474.38;;;10.03;74.21
69574;BME280;62840;52.366;5.980;2023-02-03T12:40:16;102471.56;;;10.06;74.01
69574;BME280;62840;52.366;5.980;2023-02-03T12:42:52;102475.03;;;10.08;74.11
69574;BME280;62840;52.366;5.980;2023-02-03T12:45:24;102479.31;;;10.11;73.79
69574;BME280;62840;52.366;5.980;2023-02-03T12:47:57;102465.88;;;10.12;73.81
69574;BME280;62840;52.366;5.980;2023-02-03T12:50:33;102467.63;;;10.13;73.77
69574;BME280;62840;52.366;5.980;2023-02-03T12:53:08;102464.16;;;10.11;73.49
69574;BME280;62840;52.366;5.980;2023-02-03T12:55:46;102449.22;;;10.09;73.43
69574;BME280;62840;52.366;5.980;2023-02-03T12:58:20;102460.72;;;10.09;73.26
69574;BME280;62840;52.366;5.980;2023-02-03T13:00:53;102475.88;;;10.09;73.33
69574;BME280;62840;52.366;5.980;2023-02-03T13:03:27;102487.38;;;10.09;73.30
69574;BME280;62840;52.366;5.980;2023-02-03T13:06:05;102490.91;;;10.10;72.75
69574;BME280;62840;52.366;5.980;2023-02-03T13:08:39;102487.56;;;10.06;72.79
69574;BME280;62840;52.366;5.980;2023-02-03T13:11:19;102486.78;;;10.04;72.59
69574;BME280;62840;52.366;5.980;2023-02-03T13:13:55;102489.44;;;10.04;72.84
69574;BME280;62840;52.366;5.980;2023-02-03T13:16:31;102492.91;;;10.06;72.66
69574;BME280;62840;52.366;5.980;2023-02-03T13:19:07;102494.59;;;10.07;72.89
69574;BME280;62840;52.366;5.980;2023-02-03T13:21:39;102483.94;;;10.07;72.73